createdAt,value
2019-04-07T00:00:51.988Z,92.20
2019-04-07T00:03:19.548Z,92.20
2019-04-07T00:05:46.426Z,92.80
2019-04-07T00:08:13.428Z,92.90
2019-04-07T00:10:40.191Z,92.60
2019-04-07T00:13:07.123Z,92.70
2019-04-07T00:15:34.448Z,93.00
2019-04-07T00:18:01.022Z,93.00
2019-04-07T00:20:27.701Z,93.00
2019-04-07T00:22:55.141Z,93.30
2019-04-07T00:25:22.694Z,93.20
2019-04-07T00:27:49.468Z,93.20
2019-04-07T00:30:16.858Z,93.40
2019-04-07T00:32:43.476Z,93.40
2019-04-07T00:35:22.193Z,93.50
2019-04-07T00:37:38.762Z,93.50
2019-04-07T00:40:06.912Z,93.40
2019-04-07T00:42:33.754Z,93.20
2019-04-07T00:45:00.821Z,92.90
2019-04-07T00:47:27.449Z,93.40
2019-04-07T00:49:55.584Z,93.50
2019-04-07T00:52:24.048Z,94.00
2019-04-07T00:54:51.313Z,93.90
2019-04-07T00:57:17.863Z,93.70
2019-04-07T00:59:45.199Z,93.50
2019-04-07T01:02:12.277Z,93.60
2019-04-07T01:04:39.637Z,93.40
2019-04-07T01:07:06.441Z,93.10
2019-04-07T01:09:33.121Z,92.80
2019-04-07T01:11:59.657Z,93.30
2019-04-07T01:14:26.551Z,93.60
2019-04-07T01:16:53.186Z,94.00
2019-04-07T01:19:20.025Z,94.10
2019-04-07T01:21:46.902Z,93.80
2019-04-07T01:24:13.551Z,93.80
2019-04-07T01:26:40.496Z,93.90
2019-04-07T01:29:07.187Z,94.20
2019-04-07T01:31:34.073Z,94.30
2019-04-07T01:34:00.735Z,94.50
2019-04-07T01:36:27.917Z,94.60
2019-04-07T01:38:54.678Z,94.70
2019-04-07T01:41:29.095Z,94.50
2019-04-07T01:44:06.893Z,94.30
2019-04-07T01:46:38.040Z,94.30
2019-04-07T01:49:09.119Z,94.40
2019-04-07T01:51:55.521Z,94.40
2019-04-07T01:54:36.229Z,94.60
2019-04-07T01:57:23.506Z,94.30
2019-04-07T02:00:07.246Z,94.40
2019-04-07T02:02:41.724Z,94.70
2019-04-07T02:05:10.863Z,95.00
2019-04-07T02:07:40.050Z,94.30
2019-04-07T02:10:12.059Z,94.10
2019-04-07T02:12:50.689Z,94.20
2019-04-07T02:15:22.805Z,94.80
2019-04-07T02:17:58.187Z,95.00
2019-04-07T02:20:48.796Z,94.80
2019-04-07T02:23:17.467Z,94.60
2019-04-07T02:25:48.620Z,94.10
2019-04-07T02:28:34.119Z,94.30
2019-04-07T02:31:14.360Z,94.20
2019-04-07T02:33:52.427Z,94.00
2019-04-07T02:36:26.157Z,94.20
2019-04-07T02:38:54.694Z,94.30
2019-04-07T02:41:26.116Z,94.20
2019-04-07T02:44:10.842Z,94.40
2019-04-07T02:46:42.149Z,94.70
2019-04-07T02:49:14.152Z,94.30
2019-04-07T02:51:57.712Z,94.40
2019-04-07T02:54:36.024Z,94.90
2019-04-07T02:57:05.464Z,95.00
2019-04-07T02:59:42.651Z,94.70
2019-04-07T03:02:14.180Z,95.00
2019-04-07T03:04:44.288Z,95.10
2019-04-07T03:07:13.552Z,94.80
2019-04-07T03:09:42.192Z,94.60
2019-04-07T03:12:10.633Z,94.80
2019-04-07T03:14:57.195Z,95.00
2019-04-07T03:17:29.640Z,95.20
2019-04-07T03:20:07.130Z,95.00
2019-04-07T03:22:36.673Z,94.80
2019-04-07T03:25:23.908Z,95.20
2019-04-07T03:27:59.201Z,95.10
2019-04-07T03:30:30.545Z,95.30
2019-04-07T03:33:00.655Z,95.60
2019-04-07T03:35:34.028Z,95.60
2019-04-07T03:38:13.930Z,95.50
2019-04-07T03:40:46.227Z,95.20
2019-04-07T03:43:28.158Z,94.90
2019-04-07T03:46:14.488Z,95.10
2019-04-07T03:48:55.456Z,95.00
2019-04-07T03:51:42.100Z,95.30
2019-04-07T03:54:10.490Z,95.20
2019-04-07T03:56:53.718Z,95.30
2019-04-07T03:59:40.648Z,95.40
2019-04-07T04:02:15.114Z,95.30
2019-04-07T04:05:01.554Z,95.40
2019-04-07T04:07:52.979Z,95.70
2019-04-07T04:10:22.343Z,95.70
2019-04-07T04:12:51.309Z,95.80
2019-04-07T04:15:20.210Z,95.70
2019-04-07T04:17:48.038Z,95.80
2019-04-07T04:20:14.851Z,96.00
2019-04-07T04:22:41.473Z,96.00
2019-04-07T04:25:08.889Z,96.10
2019-04-07T04:27:36.875Z,96.10
2019-04-07T04:30:10.201Z,95.70
2019-04-07T04:32:37.116Z,95.40
2019-04-07T04:35:06.476Z,95.50
2019-04-07T04:37:42.623Z,95.60
2019-04-07T04:40:05.311Z,95.70
2019-04-07T04:42:32.012Z,95.60
2019-04-07T04:44:58.891Z,95.50
2019-04-07T04:47:25.742Z,95.20
2019-04-07T04:49:52.760Z,95.10
2019-04-07T04:52:20.610Z,95.20
2019-04-07T04:54:47.574Z,94.90
2019-04-07T04:57:14.383Z,94.80
2019-04-07T04:59:42.114Z,94.70
2019-04-07T05:02:09.071Z,94.60
2019-04-07T05:04:35.692Z,94.60
2019-04-07T05:07:02.279Z,94.40
2019-04-07T05:09:39.982Z,94.20
2019-04-07T05:11:57.446Z,94.20
2019-04-07T05:14:24.227Z,94.10
2019-04-07T05:16:51.519Z,94.20
2019-04-07T05:19:18.243Z,94.20
2019-04-07T05:21:44.811Z,94.10
2019-04-07T05:24:11.505Z,94.00
2019-04-07T05:26:38.819Z,93.40
2019-04-07T05:29:05.919Z,93.10
2019-04-07T05:31:33.717Z,92.90
2019-04-07T05:34:00.422Z,92.90
2019-04-07T05:36:26.962Z,92.50
2019-04-07T05:38:54.117Z,92.20
2019-04-07T05:41:21.875Z,91.70
2019-04-07T05:43:49.038Z,91.60
2019-04-07T05:46:16.021Z,90.90
2019-04-07T05:48:42.653Z,90.60
2019-04-07T05:51:09.711Z,90.10
2019-04-07T05:53:36.563Z,89.20
2019-04-07T05:56:03.468Z,89.40
2019-04-07T05:58:30.137Z,88.60
2019-04-07T06:00:57.057Z,87.90
2019-04-07T06:03:24.123Z,88.10
2019-04-07T06:05:51.256Z,88.20
2019-04-07T06:08:27.643Z,87.70
2019-04-07T06:10:46.770Z,86.40
2019-04-07T06:13:14.693Z,85.00
2019-04-07T06:15:41.823Z,84.10
2019-04-07T06:18:08.378Z,83.50
2019-04-07T06:20:35.005Z,82.90
2019-04-07T06:23:02.022Z,81.20
2019-04-07T06:25:33.237Z,77.40
2019-04-07T06:27:57.798Z,75.90
2019-04-07T06:30:28.095Z,74.00
2019-04-07T06:32:54.714Z,73.20
2019-04-07T06:35:22.453Z,71.10
2019-04-07T06:37:49.102Z,69.00
2019-04-07T06:40:20.443Z,66.60
2019-04-07T06:42:45.691Z,64.10
2019-04-07T06:45:15.101Z,63.10
2019-04-07T06:47:49.765Z,60.70
2019-04-07T06:50:24.050Z,58.60
2019-04-07T06:53:02.219Z,57.30
2019-04-07T06:55:42.791Z,53.00
2019-04-07T06:58:27.661Z,51.30
2019-04-07T07:01:13.268Z,46.90
2019-04-07T07:03:42.059Z,43.50
2019-04-07T07:06:22.937Z,40.90
2019-04-07T07:08:54.186Z,38.40
2019-04-07T07:11:35.428Z,39.80
2019-04-07T07:14:07.871Z,38.50
2019-04-07T07:16:41.170Z,36.00
2019-04-07T07:19:13.004Z,36.00
2019-04-07T07:21:42.726Z,35.80
2019-04-07T07:24:10.461Z,34.00
2019-04-07T07:26:37.142Z,34.30
2019-04-07T07:29:06.314Z,34.40
2019-04-07T07:31:32.124Z,34.10
2019-04-07T07:33:58.863Z,35.00
2019-04-07T07:36:25.413Z,33.20
2019-04-07T07:38:59.010Z,31.40
2019-04-07T07:41:23.034Z,30.60
2019-04-07T07:43:49.285Z,31.00
2019-04-07T07:46:18.417Z,31.20
2019-04-07T07:48:44.575Z,30.30
2019-04-07T07:51:13.279Z,30.40
2019-04-07T07:53:40.287Z,29.90
2019-04-07T07:56:10.602Z,30.80
2019-04-07T07:58:35.595Z,31.00
2019-04-07T08:01:02.199Z,30.70
2019-04-07T08:03:28.982Z,30.10
2019-04-07T08:05:55.625Z,29.40
2019-04-07T08:08:22.219Z,28.90
2019-04-07T08:10:48.920Z,29.10
2019-04-07T08:13:15.620Z,28.90
2019-04-07T08:15:42.637Z,28.10
2019-04-07T08:18:09.702Z,28.10
2019-04-07T08:20:36.429Z,28.60
2019-04-07T08:23:03.658Z,28.40
2019-04-07T08:25:30.737Z,28.00
2019-04-07T08:28:02.143Z,27.70
2019-04-07T08:30:27.210Z,27.30
2019-04-07T08:32:57.127Z,27.10
2019-04-07T08:35:22.269Z,26.20
2019-04-07T08:37:49.971Z,26.40
2019-04-07T08:40:17.103Z,26.30
2019-04-07T08:42:46.393Z,26.00
2019-04-07T08:45:12.945Z,25.70
2019-04-07T08:47:40.233Z,26.00
2019-04-07T08:50:08.442Z,25.20
2019-04-07T08:52:38.441Z,25.60
2019-04-07T08:55:06.099Z,25.50
2019-04-07T08:57:34.669Z,25.60
2019-04-07T09:00:01.492Z,25.00
2019-04-07T09:02:30.169Z,25.20
2019-04-07T09:04:57.008Z,25.30
2019-04-07T09:07:24.618Z,24.60
2019-04-07T09:09:51.516Z,24.40
2019-04-07T09:12:18.475Z,24.20
2019-04-07T09:14:45.636Z,24.20
2019-04-07T09:17:30.652Z,24.50
2019-04-07T09:20:06.105Z,23.60
2019-04-07T09:22:33.039Z,25.10
2019-04-07T09:25:08.223Z,24.30
2019-04-07T09:27:38.137Z,24.20
2019-04-07T09:30:14.206Z,24.30
2019-04-07T09:32:54.641Z,25.30
2019-04-07T09:35:26.798Z,25.40
2019-04-07T09:37:55.981Z,25.90
2019-04-07T09:40:25.316Z,25.90
2019-04-07T09:42:59.994Z,25.80
2019-04-07T09:45:38.572Z,27.00
2019-04-07T09:48:09.048Z,27.00
2019-04-07T09:50:37.628Z,26.70
2019-04-07T09:53:13.862Z,26.30
2019-04-07T09:55:59.218Z,25.20
2019-04-07T09:58:27.694Z,24.50
2019-04-07T10:00:57.719Z,24.60
2019-04-07T10:03:42.857Z,25.10
2019-04-07T10:06:17.199Z,25.30
2019-04-07T10:08:52.214Z,25.00
2019-04-07T10:11:36.213Z,25.00
2019-04-07T10:14:07.916Z,24.90
2019-04-07T10:16:48.446Z,24.40
2019-04-07T10:19:33.242Z,23.70
2019-04-07T10:22:08.319Z,23.60
2019-04-07T10:24:54.904Z,23.80
2019-04-07T10:27:35.396Z,23.10
2019-04-07T10:30:06.774Z,23.30
2019-04-07T10:32:44.262Z,22.70
2019-04-07T10:35:15.725Z,22.40
2019-04-07T10:37:44.317Z,22.30
2019-04-07T10:40:21.227Z,23.90
2019-04-07T10:42:49.249Z,24.10
2019-04-07T10:45:26.978Z,23.60
2019-04-07T10:47:58.516Z,24.10
2019-04-07T10:50:26.960Z,23.90
2019-04-07T10:52:56.205Z,23.20
2019-04-07T10:55:26.407Z,23.50
2019-04-07T10:57:55.005Z,23.50
2019-04-07T11:00:45.486Z,23.10
2019-04-07T11:03:21.274Z,22.90
2019-04-07T11:05:50.424Z,23.00
2019-04-07T11:08:19.032Z,22.70
2019-04-07T11:11:04.502Z,22.90
2019-04-07T11:13:39.032Z,22.90
2019-04-07T11:16:10.924Z,23.10
2019-04-07T11:18:45.289Z,23.70
2019-04-07T11:21:19.519Z,23.80
2019-04-07T11:23:56.777Z,24.00
2019-04-07T11:26:37.405Z,22.90
2019-04-07T11:29:11.882Z,23.10
2019-04-07T11:31:40.577Z,23.00
2019-04-07T11:34:09.133Z,23.30
2019-04-07T11:36:37.565Z,22.90
2019-04-07T11:39:21.985Z,23.40
2019-04-07T11:41:59.402Z,23.60
2019-04-07T11:44:28.032Z,22.70
2019-04-07T11:47:05.209Z,23.10
2019-04-07T11:49:44.471Z,23.20
2019-04-07T11:52:18.802Z,23.60
2019-04-07T11:54:50.127Z,23.70
2019-04-07T11:57:20.354Z,23.10
2019-04-07T11:59:54.004Z,22.50
2019-04-07T12:02:26.384Z,23.10
2019-04-07T12:05:11.750Z,23.10
2019-04-07T12:07:40.335Z,23.10
2019-04-07T12:10:22.483Z,23.30
2019-04-07T12:12:57.020Z,23.20
2019-04-07T12:15:32.405Z,23.90
2019-04-07T12:18:07.183Z,23.40
2019-04-07T12:20:44.034Z,24.50
2019-04-07T12:23:30.678Z,23.50
2019-04-07T12:26:10.974Z,23.70
2019-04-07T12:28:50.333Z,23.60
2019-04-07T12:31:36.230Z,23.20
2019-04-07T12:34:12.046Z,23.70
2019-04-07T12:36:44.208Z,22.70
2019-04-07T12:39:17.335Z,22.90
2019-04-07T12:41:48.966Z,23.90
2019-04-07T12:44:17.393Z,23.40
2019-04-07T12:47:03.079Z,24.00
2019-04-07T12:49:33.323Z,25.40
2019-04-07T12:52:18.472Z,24.60
2019-04-07T12:54:56.785Z,24.20
2019-04-07T12:57:28.831Z,24.90
2019-04-07T12:59:59.962Z,26.20
2019-04-07T13:02:28.566Z,27.00
2019-04-07T13:05:07.661Z,27.10
2019-04-07T13:07:40.295Z,26.90
2019-04-07T13:10:12.960Z,26.90
2019-04-07T13:12:47.848Z,27.90
2019-04-07T13:15:19.465Z,28.80
2019-04-07T13:17:48.458Z,28.00
2019-04-07T13:20:33.783Z,28.00
2019-04-07T13:23:05.917Z,27.30
2019-04-07T13:25:47.349Z,27.40
2019-04-07T13:28:16.451Z,27.30
2019-04-07T13:30:48.781Z,26.90
2019-04-07T13:33:36.089Z,28.50
2019-04-07T13:36:08.261Z,27.40
2019-04-07T13:38:45.822Z,27.90
2019-04-07T13:41:16.197Z,27.50
2019-04-07T13:43:44.722Z,28.00
2019-04-07T13:46:34.827Z,28.00
2019-04-07T13:49:05.789Z,27.80
2019-04-07T13:51:51.379Z,27.30
2019-04-07T13:54:23.079Z,27.80
2019-04-07T13:56:57.501Z,27.30
2019-04-07T13:59:34.897Z,28.00
2019-04-07T14:02:04.210Z,27.80
2019-04-07T14:04:42.328Z,28.80
2019-04-07T14:07:27.446Z,28.70
2019-04-07T14:10:04.381Z,28.60
2019-04-07T14:12:33.383Z,28.10
2019-04-07T14:15:02.910Z,28.50
2019-04-07T14:17:37.349Z,28.10
2019-04-07T14:20:08.809Z,27.80
2019-04-07T14:22:55.569Z,28.40
2019-04-07T14:25:45.362Z,28.40
2019-04-07T14:28:16.927Z,28.70
2019-04-07T14:30:45.638Z,28.30
2019-04-07T14:33:14.110Z,28.30
2019-04-07T14:35:48.833Z,28.80
2019-04-07T14:38:17.512Z,28.30
2019-04-07T14:41:01.084Z,28.60
2019-04-07T14:43:47.545Z,28.40
2019-04-07T14:46:24.823Z,28.80
2019-04-07T14:49:14.117Z,28.10
2019-04-07T14:51:42.417Z,28.40
2019-04-07T14:54:22.617Z,28.50
2019-04-07T14:57:09.087Z,28.40
2019-04-07T14:59:56.328Z,28.20
2019-04-07T15:02:22.928Z,27.60
2019-04-07T15:04:54.434Z,28.20
2019-04-07T15:07:23.687Z,28.20
2019-04-07T15:09:52.431Z,27.50
2019-04-07T15:12:32.721Z,27.50
2019-04-07T15:15:02.077Z,28.00
2019-04-07T15:17:28.274Z,28.70
2019-04-07T15:19:54.995Z,28.70
2019-04-07T15:22:25.139Z,28.60
2019-04-07T15:24:50.072Z,28.50
2019-04-07T15:27:21.626Z,28.10
2019-04-07T15:29:46.785Z,28.60
2019-04-07T15:32:17.089Z,28.90
2019-04-07T15:34:44.515Z,29.20
2019-04-07T15:37:13.204Z,28.80
2019-04-07T15:39:42.773Z,28.40
2019-04-07T15:42:11.216Z,28.50
2019-04-07T15:44:39.711Z,28.40
2019-04-07T15:47:09.353Z,29.10
2019-04-07T15:49:37.216Z,28.80
2019-04-07T15:52:07.656Z,28.60
2019-04-07T15:54:33.823Z,29.10
2019-04-07T15:57:00.567Z,29.50
2019-04-07T15:59:29.794Z,29.60
2019-04-07T16:02:01.143Z,30.20
2019-04-07T16:04:29.605Z,29.90
2019-04-07T16:06:57.271Z,30.60
2019-04-07T16:09:34.413Z,31.00
2019-04-07T16:11:53.375Z,31.90
2019-04-07T16:14:23.008Z,31.70
2019-04-07T16:16:51.661Z,32.70
2019-04-07T16:19:24.912Z,33.10
2019-04-07T16:21:49.807Z,34.20
2019-04-07T16:24:16.732Z,32.00
2019-04-07T16:26:44.343Z,33.20
2019-04-07T16:29:11.523Z,34.80
2019-04-07T16:31:41.272Z,34.80
2019-04-07T16:34:10.382Z,33.60
2019-04-07T16:36:37.763Z,35.60
2019-04-07T16:39:09.314Z,36.20
2019-04-07T16:41:36.053Z,35.70
2019-04-07T16:44:04.797Z,37.00
2019-04-07T16:46:31.648Z,37.80
2019-04-07T16:48:58.703Z,38.90
2019-04-07T16:51:27.710Z,38.90
2019-04-07T16:53:54.999Z,38.80
2019-04-07T16:56:22.277Z,39.00
2019-04-07T16:58:49.154Z,39.70
2019-04-07T17:01:16.077Z,39.50
2019-04-07T17:03:43.097Z,40.80
2019-04-07T17:06:11.950Z,41.50
2019-04-07T17:08:39.123Z,42.00
2019-04-07T17:11:07.809Z,42.60
2019-04-07T17:13:39.848Z,41.70
2019-04-07T17:16:03.273Z,42.00
2019-04-07T17:18:41.419Z,42.40
2019-04-07T17:21:15.906Z,43.60
2019-04-07T17:23:43.708Z,45.80
2019-04-07T17:26:11.541Z,47.10
2019-04-07T17:28:38.899Z,47.70
2019-04-07T17:31:05.925Z,48.90
2019-04-07T17:33:36.789Z,50.70
2019-04-07T17:36:02.455Z,52.30
2019-04-07T17:38:33.155Z,53.50
2019-04-07T17:40:59.955Z,55.00
2019-04-07T17:43:44.722Z,55.70
2019-04-07T17:46:10.866Z,56.00
2019-04-07T17:48:43.994Z,58.40
2019-04-07T17:51:25.026Z,58.20
2019-04-07T17:53:53.963Z,59.40
2019-04-07T17:56:22.624Z,59.80
2019-04-07T17:59:13.063Z,62.00
2019-04-07T18:01:39.145Z,61.30
2019-04-07T18:04:13.916Z,61.30
2019-04-07T18:06:47.460Z,62.90
2019-04-07T18:09:33.968Z,63.10
2019-04-07T18:12:19.812Z,63.90
2019-04-07T18:15:07.617Z,64.20
2019-04-07T18:17:44.633Z,64.90
2019-04-07T18:20:28.347Z,65.70
2019-04-07T18:23:03.493Z,66.10
2019-04-07T18:25:41.429Z,68.10
2019-04-07T18:28:27.488Z,69.60
2019-04-07T18:31:06.756Z,70.00
2019-04-07T18:33:38.503Z,71.10
2019-04-07T18:36:07.980Z,72.80
2019-04-07T18:38:41.696Z,72.20
2019-04-07T18:41:11.322Z,71.90
2019-04-07T18:43:50.592Z,73.10
2019-04-07T18:46:19.918Z,72.10
2019-04-07T18:49:06.253Z,73.10
2019-04-07T18:51:37.617Z,73.30
2019-04-07T18:54:21.431Z,73.80
2019-04-07T18:57:01.626Z,75.80
2019-04-07T18:59:42.194Z,75.50
2019-04-07T19:02:27.056Z,75.70
2019-04-07T19:05:01.375Z,75.50
2019-04-07T19:07:47.191Z,77.90
2019-04-07T19:10:30.942Z,77.30
2019-04-07T19:13:18.908Z,77.60
2019-04-07T19:15:56.808Z,77.50
2019-04-07T19:18:42.394Z,77.80
2019-04-07T19:21:13.787Z,77.60
2019-04-07T19:23:45.196Z,77.00
2019-04-07T19:26:30.165Z,78.40
2019-04-07T19:29:14.115Z,78.80
2019-04-07T19:31:51.722Z,78.10
2019-04-07T19:34:18.640Z,78.00
2019-04-07T19:36:48.129Z,78.10
2019-04-07T19:39:33.152Z,78.80
2019-04-07T19:42:19.873Z,79.80
2019-04-07T19:44:50.988Z,80.20
2019-04-07T19:47:35.210Z,80.90
2019-04-07T19:50:09.767Z,81.30
2019-04-07T19:52:43.185Z,81.60
2019-04-07T19:55:14.811Z,81.60
2019-04-07T19:57:52.601Z,81.90
2019-04-07T20:00:39.836Z,82.30
2019-04-07T20:03:24.786Z,82.20
2019-04-07T20:05:58.992Z,82.50
2019-04-07T20:08:44.222Z,82.80
2019-04-07T20:11:27.366Z,83.00
2019-04-07T20:13:52.787Z,83.80
2019-04-07T20:16:24.279Z,83.70
2019-04-07T20:19:10.855Z,83.60
2019-04-07T20:21:53.243Z,83.80
2019-04-07T20:24:19.581Z,84.10
2019-04-07T20:26:52.853Z,84.80
2019-04-07T20:29:41.409Z,85.20
2019-04-07T20:32:11.127Z,85.20
2019-04-07T20:34:52.611Z,85.40
2019-04-07T20:37:38.825Z,85.40
2019-04-07T20:40:17.242Z,86.40
2019-04-07T20:42:49.109Z,87.90
2019-04-07T20:45:25.189Z,87.10
2019-04-07T20:47:56.597Z,87.10
2019-04-07T20:50:33.511Z,86.60
2019-04-07T20:53:14.856Z,86.20
2019-04-07T20:55:40.020Z,86.70
2019-04-07T20:58:22.105Z,86.00
2019-04-07T21:01:04.037Z,86.30
2019-04-07T21:03:50.342Z,86.30
2019-04-07T21:06:33.743Z,86.60
2019-04-07T21:09:08.034Z,86.40
2019-04-07T21:11:40.492Z,86.80
2019-04-07T21:14:11.380Z,87.10
2019-04-07T21:16:59.326Z,87.40
2019-04-07T21:19:42.320Z,87.60
2019-04-07T21:22:12.457Z,87.40
2019-04-07T21:24:58.629Z,88.00
2019-04-07T21:27:28.410Z,88.00
2019-04-07T21:29:57.976Z,88.10
2019-04-07T21:32:44.260Z,88.10
2019-04-07T21:35:25.813Z,87.60
2019-04-07T21:38:06.119Z,87.50
2019-04-07T21:40:35.291Z,87.60
2019-04-07T21:43:05.806Z,88.20
2019-04-07T21:45:47.357Z,88.80
2019-04-07T21:48:20.014Z,88.20
2019-04-07T21:51:00.384Z,88.90
2019-04-07T21:53:32.134Z,88.90
2019-04-07T21:56:17.893Z,89.00
2019-04-07T21:59:03.209Z,88.60
2019-04-07T22:01:35.361Z,89.10
2019-04-07T22:04:03.093Z,89.50
2019-04-07T22:06:47.886Z,89.30
2019-04-07T22:09:23.251Z,90.00
2019-04-07T22:11:49.881Z,89.30
2019-04-07T22:14:16.747Z,89.60
2019-04-07T22:16:44.920Z,90.10
2019-04-07T22:19:13.959Z,90.50
2019-04-07T22:21:40.435Z,90.30
2019-04-07T22:24:06.973Z,90.30
2019-04-07T22:26:34.919Z,90.20
2019-04-07T22:29:03.997Z,90.20
2019-04-07T22:31:45.603Z,90.30
2019-04-07T22:34:14.737Z,90.50
2019-04-07T22:36:45.502Z,90.70
2019-04-07T22:39:10.299Z,90.20
2019-04-07T22:41:41.107Z,90.10
2019-04-07T22:44:05.521Z,90.50
2019-04-07T22:46:33.109Z,90.60
2019-04-07T22:48:59.731Z,90.80
2019-04-07T22:51:26.335Z,90.70
2019-04-07T22:53:56.162Z,91.10
2019-04-07T22:56:22.279Z,91.30
2019-04-07T22:58:48.871Z,91.50
2019-04-07T23:01:16.506Z,91.50
2019-04-07T23:03:43.980Z,91.40
2019-04-07T23:06:10.724Z,91.40
2019-04-07T23:08:37.231Z,91.50
2019-04-07T23:11:04.304Z,91.80
2019-04-07T23:13:30.951Z,91.40
2019-04-07T23:16:10.020Z,91.50
2019-04-07T23:18:26.072Z,91.90
2019-04-07T23:20:53.791Z,92.10
2019-04-07T23:23:20.345Z,92.10
2019-04-07T23:25:46.889Z,92.00
2019-04-07T23:28:13.488Z,91.70
2019-04-07T23:30:40.866Z,91.70
2019-04-07T23:33:08.367Z,91.30
2019-04-07T23:35:35.258Z,91.90
2019-04-07T23:38:01.832Z,92.00
2019-04-07T23:40:28.326Z,91.80
2019-04-07T23:42:55.125Z,91.80
2019-04-07T23:45:21.756Z,91.90
2019-04-07T23:47:48.557Z,92.20
2019-04-07T23:50:15.251Z,92.30
2019-04-07T23:52:41.925Z,92.40
2019-04-07T23:55:09.417Z,92.50
2019-04-07T23:57:36.061Z,92.50
